Time;durP1;ratioP1;P1;durP2;ratioP2;P2;SDS_P1;SDS_P2;PMS_P1;PMS_P2;Temp;Humidity;BMP_temperature;BMP_pressure;BME280_temperature;BME280_humidity;BME280_pressure;Samples;Min_cycle;Max_cycle;Signal;HPM_P1;HPM_P2
2022/10/15 00:00:48;;;;;;;31.52;22.20;;;;;;;10.86;100.00;100574.22;5260795;28;20833;-70
2022/10/15 00:03:19;;;;;;;35.92;24.13;;;;;;;10.80;100.00;100580.91;5264698;28;20033;-70
2022/10/15 00:05:51;;;;;;;35.53;24.33;;;;;;;10.75;100.00;100586.59;5261898;28;21049;-71
2022/10/15 00:08:22;;;;;;;33.00;22.77;;;;;;;10.75;100.00;100577.75;5267768;28;20443;-70
2022/10/15 00:10:53;;;;;;;36.92;23.45;;;;;;;10.72;100.00;100581.53;5269532;28;20036;-71
2022/10/15 00:13:24;;;;;;;34.42;23.45;;;;;;;10.70;100.00;100579.94;5271340;28;20035;-70
2022/10/15 00:15:56;;;;;;;34.42;24.25;;;;;;;10.87;100.00;100578.56;5252908;28;20033;-70
2022/10/15 00:18:27;;;;;;;31.40;22.45;;;;;;;10.83;100.00;100585.97;5261462;28;20052;-70
2022/10/15 00:21:00;;;;;;;38.63;25.55;;;;;;;10.82;100.00;100586.13;5260293;28;20087;-70
2022/10/15 00:23:32;;;;;;;32.58;23.23;;;;;;;10.88;100.00;100590.94;5261011;28;20368;-70
2022/10/15 00:26:12;;;;;;;34.47;24.25;;;;;;;10.85;100.00;100583.19;5260398;28;20086;-70
2022/10/15 00:28:44;;;;;;;35.28;24.50;;;;;;;10.84;100.00;100593.03;5276444;28;20119;-69
2022/10/15 00:31:17;;;;;;;34.92;24.85;;;;;;;10.86;100.00;100585.72;5272895;28;20437;-70
2022/10/15 00:33:49;;;;;;;39.38;25.45;;;;;;;10.83;100.00;100590.47;5279158;28;20035;-69
2022/10/15 00:36:23;;;;;;;35.75;25.15;;;;;;;10.83;100.00;100595.81;5272390;28;20437;-70
2022/10/15 00:38:55;;;;;;;35.78;24.80;;;;;;;10.80;100.00;100586.25;5277065;28;20084;-69
2022/10/15 00:41:32;;;;;;;33.00;23.38;;;;;;;10.93;100.00;100586.06;5275989;28;20495;-69
2022/10/15 00:44:22;;;;;;;33.45;24.90;;;;;;;10.92;100.00;100587.06;5275537;28;20032;-69
2022/10/15 00:47:08;;;;;;;33.47;24.85;;;;;;;10.86;100.00;100592.91;5267326;28;20033;-70
2022/10/15 00:49:43;;;;;;;33.58;24.85;;;;;;;10.89;100.00;100595.28;5264773;28;20153;-70
2022/10/15 00:52:22;;;;;;;36.30;27.17;;;;;;;10.91;100.00;100594.22;5276842;28;20032;-69
2022/10/15 00:55:07;;;;;;;34.42;26.00;;;;;;;10.99;100.00;100593.59;5268719;28;20125;-69
2022/10/15 00:57:39;;;;;;;34.65;25.50;;;;;;;10.93;100.00;100589.59;5281169;28;20553;-70
2022/10/15 01:00:14;;;;;;;35.25;25.85;;;;;;;10.99;100.00;100590.91;5280997;28;20402;-70
2022/10/15 01:02:45;;;;;;;34.67;25.27;;;;;;;11.02;100.00;100596.00;5277654;28;20032;-70
2022/10/15 01:05:18;;;;;;;37.13;25.77;;;;;;;10.99;100.00;100594.44;5258695;28;20048;-70
2022/10/15 01:07:50;;;;;;;37.72;26.85;;;;;;;11.02;100.00;100587.13;5275424;28;20558;-70
2022/10/15 01:10:27;;;;;;;36.35;25.65;;;;;;;11.05;100.00;100587.75;5275953;28;20033;-70
2022/10/15 01:13:15;;;;;;;34.13;25.20;;;;;;;11.15;100.00;100585.16;5275312;28;20032;-70
2022/10/15 01:15:55;;;;;;;33.35;26.13;;;;;;;11.11;100.00;100581.88;5270792;28;20032;-70
2022/10/15 01:18:49;;;;;;;33.67;24.77;;;;;;;11.19;100.00;100581.25;5270107;28;20037;-70
2022/10/15 01:21:32;;;;;;;34.22;26.75;;;;;;;11.18;100.00;100574.22;5251463;28;20117;-71
2022/10/15 01:24:21;;;;;;;35.20;26.48;;;;;;;11.18;100.00;100571.56;5254039;28;20060;-70
2022/10/15 01:27:18;;;;;;;33.03;25.40;;;;;;;11.19;100.00;100579.41;5253896;28;20029;-70
2022/10/15 01:30:08;;;;;;;32.50;25.33;;;;;;;11.21;100.00;100562.44;5265923;28;20665;-70
2022/10/15 01:32:52;;;;;;;31.80;24.92;;;;;;;11.30;100.00;100565.16;5262335;28;20474;-70
2022/10/15 01:35:48;;;;;;;32.22;26.23;;;;;;;11.40;100.00;100562.56;5261889;28;20036;-70
2022/10/15 01:38:30;;;;;;;36.15;26.42;;;;;;;11.36;100.00;100553.97;5266411;28;20029;-70
2022/10/15 01:41:12;;;;;;;33.58;27.42;;;;;;;11.39;100.00;100552.88;5257208;28;20195;-70
2022/10/15 01:43:59;;;;;;;32.05;25.83;;;;;;;11.42;100.00;100555.28;5262514;28;20044;-70
2022/10/15 01:46:38;;;;;;;34.25;27.08;;;;;;;11.51;100.00;100551.81;5261222;28;20040;-70
2022/10/15 01:49:14;;;;;;;34.22;26.67;;;;;;;11.41;100.00;100545.56;5264216;28;20695;-70
2022/10/15 01:51:45;;;;;;;33.60;24.83;;;;;;;11.47;100.00;100557.56;5256755;28;20031;-70
2022/10/15 01:54:19;;;;;;;32.08;26.05;;;;;;;11.50;100.00;100549.28;5282892;28;20052;-70
2022/10/15 01:56:53;;;;;;;36.40;26.10;;;;;;;11.47;100.00;100541.53;5261110;28;20396;-70
2022/10/15 01:59:30;;;;;;;31.00;25.05;;;;;;;11.49;100.00;100542.25;5281880;28;20436;-70
2022/10/15 02:02:01;;;;;;;32.50;25.02;;;;;;;11.50;100.00;100544.78;5275835;28;20035;-70
2022/10/15 02:04:32;;;;;;;32.78;25.25;;;;;;;11.61;100.00;100540.34;5276722;28;20032;-70
2022/10/15 02:07:05;;;;;;;31.52;25.70;;;;;;;11.56;100.00;100540.72;5269442;28;20158;-70
2022/10/15 02:09:48;;;;;;;32.90;25.15;;;;;;;11.54;100.00;100537.34;5288509;28;20521;-70
2022/10/15 02:12:35;;;;;;;31.48;24.95;;;;;;;11.65;100.00;100541.78;5267817;28;20033;-70
2022/10/15 02:15:15;;;;;;;34.53;25.98;;;;;;;11.58;100.00;100531.63;5274564;28;20032;-70
2022/10/15 02:18:08;;;;;;;32.85;24.85;;;;;;;11.70;100.00;100531.56;5267265;28;21139;-70
2022/10/15 02:20:50;;;;;;;35.03;26.70;;;;;;;11.69;100.00;100530.69;5275196;28;20037;-70
2022/10/15 02:23:39;;;;;;;29.48;24.42;;;;;;;11.64;100.00;100532.06;5267200;28;20043;-70
2022/10/15 02:26:13;;;;;;;35.20;25.23;;;;;;;11.61;100.00;100529.66;5285958;28;20027;-70
2022/10/15 02:28:51;;;;;;;33.05;24.52;;;;;;;11.69;100.00;100521.81;5274155;28;20115;-70
2022/10/15 02:31:23;;;;;;;29.92;24.65;;;;;;;11.60;100.00;100523.44;5280016;28;20315;-70
2022/10/15 02:34:00;;;;;;;31.63;24.63;;;;;;;11.67;100.00;100513.94;5283852;28;20097;-70
2022/10/15 02:36:31;;;;;;;32.83;25.38;;;;;;;11.72;100.00;100521.56;5281858;28;20119;-70
2022/10/15 02:39:04;;;;;;;36.08;25.55;;;;;;;11.65;100.00;100515.88;5274780;28;20024;-70
2022/10/15 02:41:37;;;;;;;34.05;25.88;;;;;;;11.81;100.00;100509.22;5265481;28;20687;-70
2022/10/15 02:44:08;;;;;;;31.75;25.23;;;;;;;11.73;100.00;100507.22;5264475;28;20025;-70
2022/10/15 02:46:40;;;;;;;33.05;24.77;;;;;;;11.80;100.00;100497.69;5258623;28;20852;-64
2022/10/15 02:49:11;;;;;;;34.83;27.02;;;;;;;11.71;100.00;100493.13;5256771;28;20031;-66
2022/10/15 02:51:43;;;;;;;32.75;25.35;;;;;;;11.83;100.00;100494.75;5252840;28;20085;-65
2022/10/15 02:54:14;;;;;;;33.30;26.38;;;;;;;11.74;100.00;100487.53;5264562;28;20059;-65
2022/10/15 02:56:45;;;;;;;32.50;24.75;;;;;;;11.85;100.00;100484.78;5255241;28;20033;-65
2022/10/15 02:59:18;;;;;;;35.78;27.33;;;;;;;11.78;100.00;100487.13;5257953;28;20541;-65
2022/10/15 03:01:49;;;;;;;32.53;25.50;;;;;;;11.79;100.00;100477.28;5253129;28;20502;-66
2022/10/15 03:04:21;;;;;;;34.95;26.48;;;;;;;11.86;100.00;100478.44;5252419;28;20044;-65
2022/10/15 03:06:52;;;;;;;31.55;25.73;;;;;;;11.91;100.00;100472.72;5254026;28;20037;-70
2022/10/15 03:09:24;;;;;;;33.42;26.08;;;;;;;11.92;100.00;100469.91;5254648;28;20051;-70
2022/10/15 03:11:55;;;;;;;34.05;26.08;;;;;;;11.80;100.00;100475.47;5252089;28;20100;-70
2022/10/15 03:14:26;;;;;;;34.72;26.13;;;;;;;11.88;100.00;100478.31;5260376;28;20029;-70
2022/10/15 03:16:57;;;;;;;34.85;24.20;;;;;;;11.86;100.00;100467.75;5257287;28;20028;-70
2022/10/15 03:19:29;;;;;;;32.28;25.40;;;;;;;11.87;100.00;100463.22;5255651;28;20036;-70
2022/10/15 03:22:00;;;;;;;34.60;25.55;;;;;;;11.85;100.00;100481.22;5258206;28;20035;-67
2022/10/15 03:24:31;;;;;;;34.25;24.80;;;;;;;11.81;100.00;100482.50;5260369;28;20032;-67
2022/10/15 03:27:03;;;;;;;33.30;24.98;;;;;;;11.86;100.00;100477.59;5259124;28;20435;-67
2022/10/15 03:29:34;;;;;;;28.65;22.95;;;;;;;11.85;100.00;100473.22;5254754;28;21430;-65
2022/10/15 03:32:05;;;;;;;32.55;23.60;;;;;;;11.84;100.00;100477.72;5256631;28;20023;-67
2022/10/15 03:34:36;;;;;;;38.17;25.77;;;;;;;11.86;100.00;100483.78;5264860;28;20035;-65
2022/10/15 03:37:07;;;;;;;33.55;23.73;;;;;;;11.91;100.00;100486.09;5261715;28;20082;-65
2022/10/15 03:39:39;;;;;;;35.17;24.42;;;;;;;11.93;100.00;100484.97;5261157;28;20020;-65
2022/10/15 03:42:10;;;;;;;32.95;24.77;;;;;;;11.84;100.00;100471.53;5263958;28;20036;-64
2022/10/15 03:44:41;;;;;;;33.33;24.13;;;;;;;11.87;100.00;100472.13;5264281;28;20679;-67
2022/10/15 03:47:13;;;;;;;35.60;24.75;;;;;;;11.90;100.00;100468.34;5260855;28;20391;-67
2022/10/15 03:49:44;;;;;;;37.08;24.25;;;;;;;11.93;100.00;100465.41;5268995;28;20032;-67
2022/10/15 03:52:15;;;;;;;34.58;23.30;;;;;;;12.00;100.00;100455.00;5274706;28;20035;-67
2022/10/15 03:54:46;;;;;;;35.22;25.42;;;;;;;11.92;100.00;100461.88;5274475;28;20059;-67
2022/10/15 03:57:18;;;;;;;36.42;25.20;;;;;;;11.90;100.00;100465.69;5271121;28;20047;-67
2022/10/15 03:59:49;;;;;;;35.92;25.23;;;;;;;11.96;100.00;100460.63;5268547;28;20028;-67
2022/10/15 04:02:21;;;;;;;36.13;24.80;;;;;;;11.88;100.00;100460.44;5251860;28;20032;-67
2022/10/15 04:04:53;;;;;;;35.45;24.55;;;;;;;11.90;100.00;100471.84;5287335;28;20035;-67
2022/10/15 04:07:25;;;;;;;39.05;24.85;;;;;;;11.90;100.00;100474.53;5261168;28;20512;-64
2022/10/15 04:09:56;;;;;;;36.70;24.65;;;;;;;11.89;100.00;100464.84;5273774;28;20027;-65
2022/10/15 04:12:27;;;;;;;40.03;26.05;;;;;;;11.99;100.00;100470.22;5254214;28;20111;-65
2022/10/15 04:14:58;;;;;;;41.42;26.35;;;;;;;11.91;100.00;100476.25;5253153;28;20079;-65
2022/10/15 04:17:30;;;;;;;37.78;24.67;;;;;;;11.95;100.00;100469.63;5252344;28;20036;-65
2022/10/15 04:20:01;;;;;;;40.58;27.10;;;;;;;11.96;100.00;100471.31;5253007;28;20039;-66
2022/10/15 04:22:33;;;;;;;45.33;26.83;;;;;;;11.95;100.00;100476.81;5256798;28;20056;-65
2022/10/15 04:25:04;;;;;;;41.78;28.02;;;;;;;11.94;100.00;100477.78;5257578;28;20043;-65
2022/10/15 04:27:36;;;;;;;43.72;26.95;;;;;;;12.04;100.00;100478.69;5252752;28;20472;-65
2022/10/15 04:30:07;;;;;;;42.35;27.60;;;;;;;12.00;100.00;100487.09;5255450;28;20352;-66
2022/10/15 04:32:39;;;;;;;48.67;29.08;;;;;;;12.03;100.00;100476.97;5257089;28;20501;-65
2022/10/15 04:35:10;;;;;;;49.47;28.98;;;;;;;12.06;100.00;100471.38;5251516;28;20025;-65
2022/10/15 04:37:42;;;;;;;49.75;29.10;;;;;;;12.08;100.00;100466.72;5251698;28;20152;-65
2022/10/15 04:40:13;;;;;;;55.67;31.40;;;;;;;12.05;100.00;100467.00;5251027;28;20040;-65
2022/10/15 04:42:45;;;;;;;49.35;29.58;;;;;;;12.10;100.00;100466.56;5252653;28;20147;-66
2022/10/15 04:45:16;;;;;;;51.55;29.60;;;;;;;12.07;100.00;100462.34;5247865;28;20025;-65
2022/10/15 04:47:47;;;;;;;47.10;28.98;;;;;;;12.17;100.00;100467.72;5248502;28;20661;-65
2022/10/15 04:50:18;;;;;;;43.20;27.48;;;;;;;12.27;100.00;100467.75;5248709;28;20029;-65
2022/10/15 04:52:50;;;;;;;43.75;28.25;;;;;;;12.25;100.00;100465.19;5252098;28;20063;-65
2022/10/15 04:55:21;;;;;;;44.15;28.85;;;;;;;12.32;100.00;100460.16;5250080;28;20484;-66
2022/10/15 04:57:53;;;;;;;42.60;26.17;;;;;;;12.19;100.00;100459.56;5253330;28;20863;-65
2022/10/15 05:00:24;;;;;;;42.13;27.55;;;;;;;12.19;100.00;100459.56;5252819;28;20543;-65
2022/10/15 05:02:55;;;;;;;43.03;28.02;;;;;;;12.22;100.00;100461.97;5248535;28;20053;-65
2022/10/15 05:05:26;;;;;;;45.67;27.85;;;;;;;12.24;100.00;100460.84;5250801;28;20403;-65
2022/10/15 05:08:00;;;;;;;41.55;26.83;;;;;;;12.22;100.00;100461.97;5247789;28;20033;-65
2022/10/15 05:10:31;;;;;;;44.75;27.77;;;;;;;12.29;100.00;100458.63;5259607;28;20039;-65
2022/10/15 05:13:02;;;;;;;45.08;29.35;;;;;;;12.22;100.00;100460.13;5265242;28;20028;-65
2022/10/15 05:15:33;;;;;;;47.78;27.20;;;;;;;12.18;100.00;100471.22;5256005;28;20083;-65
2022/10/15 05:18:05;;;;;;;41.13;26.67;;;;;;;12.29;100.00;100471.13;5258542;28;20028;-66
2022/10/15 05:20:36;;;;;;;40.90;26.30;;;;;;;12.26;100.00;100466.91;5257782;28;20025;-64
2022/10/15 05:23:07;;;;;;;40.22;25.73;;;;;;;12.23;100.00;100471.69;5250135;28;20040;-64
2022/10/15 05:25:38;;;;;;;36.33;23.67;;;;;;;12.18;100.00;100479.25;5250785;28;20028;-66
2022/10/15 05:28:10;;;;;;;40.40;25.20;;;;;;;12.29;100.00;100469.31;5249623;28;20230;-66
2022/10/15 05:30:41;;;;;;;41.45;25.63;;;;;;;12.19;100.00;100480.97;5251708;28;20032;-67
2022/10/15 05:33:12;;;;;;;38.38;24.45;;;;;;;12.24;100.00;100471.53;5247444;28;20094;-64
2022/10/15 05:35:43;;;;;;;38.92;24.77;;;;;;;12.16;100.00;100466.88;5248445;28;20037;-65
2022/10/15 05:38:15;;;;;;;39.47;24.73;;;;;;;12.17;100.00;100473.06;5249852;28;20036;-64
2022/10/15 05:40:48;;;;;;;37.63;23.27;;;;;;;12.22;100.00;100472.69;5252628;28;20395;-64
2022/10/15 05:43:19;;;;;;;38.08;23.65;;;;;;;12.18;100.00;100469.44;5255342;28;20029;-64
2022/10/15 05:45:54;;;;;;;37.60;25.15;;;;;;;12.19;100.00;100463.06;5250362;28;20621;-64
2022/10/15 05:48:25;;;;;;;39.72;25.88;;;;;;;12.18;100.00;100464.06;5251769;28;20035;-64
2022/10/15 05:51:04;;;;;;;37.22;24.63;;;;;;;12.20;100.00;100456.75;5249196;28;20123;-64
2022/10/15 05:53:36;;;;;;;42.92;26.35;;;;;;;12.19;100.00;100463.06;5249335;28;20510;-64
2022/10/15 05:56:08;;;;;;;40.65;25.17;;;;;;;12.25;100.00;100456.34;5251409;28;20035;-64
2022/10/15 05:58:40;;;;;;;41.20;24.48;;;;;;;12.22;100.00;100453.97;5252596;28;20355;-65
2022/10/15 06:01:12;;;;;;;43.05;25.83;;;;;;;12.29;100.00;100460.41;5253702;28;20160;-64
2022/10/15 06:03:44;;;;;;;41.67;25.33;;;;;;;12.20;100.00;100461.28;5262960;28;20027;-64
2022/10/15 06:06:18;;;;;;;35.80;23.80;;;;;;;12.19;100.00;100460.41;5253419;28;20600;-64
2022/10/15 06:08:50;;;;;;;;;;;;;;;12.29;100.00;100472.00;5278680;28;20459;-64
2022/10/15 06:11:21;;;;;;;36.00;22.25;;;;;;;12.34;100.00;100464.38;5257006;28;19924;-64
2022/10/15 06:13:52;;;;;;;38.85;24.08;;;;;;;12.30;100.00;100459.44;5260640;28;20031;-64
2022/10/15 06:16:24;;;;;;;36.85;24.00;;;;;;;12.32;100.00;100461.00;5256378;28;20486;-64
2022/10/15 06:18:55;;;;;;;40.08;25.27;;;;;;;12.23;100.00;100461.81;5261157;28;20021;-64
2022/10/15 06:21:27;;;;;;;39.53;25.05;;;;;;;12.24;100.00;100465.34;5266406;28;20024;-65
2022/10/15 06:23:58;;;;;;;38.58;24.73;;;;;;;12.25;100.00;100461.69;5269880;28;20028;-64
2022/10/15 06:26:29;;;;;;;39.50;25.35;;;;;;;12.23;100.00;100467.16;5261516;28;20064;-64
2022/10/15 06:29:01;;;;;;;42.13;26.88;;;;;;;12.34;100.00;100463.53;5262254;28;20028;-64
2022/10/15 06:31:32;;;;;;;41.20;27.33;;;;;;;12.26;100.00;100464.22;5253976;28;20028;-64
2022/10/15 06:34:03;;;;;;;45.58;28.42;;;;;;;12.25;100.00;100459.84;5260350;28;20032;-64
2022/10/15 06:36:35;;;;;;;49.45;29.73;;;;;;;12.35;100.00;100465.25;5250690;28;20049;-64
2022/10/15 06:39:07;;;;;;;44.45;29.50;;;;;;;12.32;100.00;100462.84;5250934;28;20025;-64
2022/10/15 06:41:38;;;;;;;48.90;30.33;;;;;;;12.27;100.00;100465.06;5279681;28;20029;-64
2022/10/15 06:44:09;;;;;;;50.22;30.27;;;;;;;12.33;100.00;100462.69;5264448;28;20629;-64
2022/10/15 06:46:41;;;;;;;49.58;30.40;;;;;;;12.28;100.00;100467.59;5268390;28;20098;-64
2022/10/15 06:49:12;;;;;;;49.58;30.70;;;;;;;12.29;100.00;100455.94;5276983;28;20036;-64
2022/10/15 06:51:43;;;;;;;47.05;28.67;;;;;;;12.31;100.00;100448.63;5270227;28;20039;-64
2022/10/15 06:54:14;;;;;;;44.05;28.42;;;;;;;12.31;100.00;100453.97;5287075;28;20052;-64
2022/10/15 06:56:46;;;;;;;47.95;29.40;;;;;;;12.31;100.00;100453.97;5282896;28;20893;-64
2022/10/15 06:59:17;;;;;;;42.88;29.50;;;;;;;12.38;100.00;100456.09;5281406;28;20032;-67
2022/10/15 07:01:48;;;;;;;46.33;29.10;;;;;;;12.29;100.00;100461.28;5265891;28;20035;-64
2022/10/15 07:04:22;;;;;;;39.55;26.98;;;;;;;12.30;100.00;100449.59;5272828;28;20223;-64
2022/10/15 07:06:53;;;;;;;42.78;26.85;;;;;;;12.33;100.00;100456.47;5262578;28;20036;-64
2022/10/15 07:09:25;;;;;;;39.65;25.55;;;;;;;12.26;100.00;100469.56;5254712;28;20040;-64
2022/10/15 07:11:56;;;;;;;36.65;24.48;;;;;;;12.30;100.00;100464.81;5259304;28;20027;-65
2022/10/15 07:14:27;;;;;;;43.65;26.90;;;;;;;12.25;100.00;100480.41;5259657;28;20144;-64
2022/10/15 07:16:58;;;;;;;35.70;24.15;;;;;;;12.23;100.00;100477.03;5260976;28;20035;-65
2022/10/15 07:19:30;;;;;;;38.20;25.15;;;;;;;12.25;100.00;100472.38;5260458;28;20105;-65
2022/10/15 07:22:01;;;;;;;38.15;24.42;;;;;;;12.29;100.00;100477.34;5254060;28;20486;-65
2022/10/15 07:24:32;;;;;;;37.83;25.05;;;;;;;12.32;100.00;100463.66;5261301;28;20029;-65
2022/10/15 07:27:04;;;;;;;35.90;24.23;;;;;;;12.36;100.00;100445.50;5242129;28;20498;-65
2022/10/15 07:29:35;;;;;;;35.75;23.10;;;;;;;12.40;100.00;100438.91;5275272;28;20086;-64
2022/10/15 07:32:07;;;;;;;34.47;23.55;;;;;;;12.41;100.00;100439.78;5263335;28;20039;-64
2022/10/15 07:34:38;;;;;;;36.92;23.83;;;;;;;12.43;100.00;100430.59;5264376;28;20113;-64
2022/10/15 07:37:09;;;;;;;35.65;21.83;;;;;;;12.44;100.00;100434.13;5258927;28;20517;-65
2022/10/15 07:39:40;;;;;;;36.85;23.02;;;;;;;12.56;100.00;100427.66;5269695;28;20462;-64
2022/10/15 07:42:12;;;;;;;31.42;20.88;;;;;;;12.43;100.00;100424.41;5261766;28;20547;-64
2022/10/15 07:44:43;;;;;;;32.90;21.38;;;;;;;12.46;100.00;100426.78;5282165;28;20128;-64
2022/10/15 07:47:14;;;;;;;36.75;20.98;;;;;;;12.43;100.00;100425.25;5281118;28;20043;-64
2022/10/15 07:49:46;;;;;;;32.83;21.15;;;;;;;12.47;100.00;100433.84;5273832;28;20338;-64
2022/10/15 07:52:17;;;;;;;33.20;19.63;;;;;;;12.47;100.00;100415.13;5274205;28;20088;-64
2022/10/15 07:54:48;;;;;;;32.47;20.95;;;;;;;12.62;100.00;100419.06;5281946;28;20051;-63
2022/10/15 07:57:19;;;;;;;34.05;20.75;;;;;;;12.69;100.00;100420.16;5274189;28;20024;-64
2022/10/15 07:59:51;;;;;;;30.02;19.30;;;;;;;12.59;100.00;100418.50;5265976;28;20029;-64
2022/10/15 08:02:22;;;;;;;32.63;19.50;;;;;;;12.65;100.00;100412.56;5270437;28;20032;-64
2022/10/15 08:04:53;;;;;;;30.10;18.23;;;;;;;12.73;100.00;100410.88;5283073;28;20036;-64
2022/10/15 08:07:25;;;;;;;31.92;17.73;;;;;;;12.76;100.00;100412.44;5261003;28;20033;-64
2022/10/15 08:09:56;;;;;;;25.63;16.70;;;;;;;12.87;100.00;100411.44;5280996;28;20032;-64
2022/10/15 08:12:27;;;;;;;25.02;16.33;;;;;;;12.91;100.00;100405.66;5261780;28;20464;-64
2022/10/15 08:14:58;;;;;;;24.63;15.85;;;;;;;12.93;100.00;100397.47;5272222;28;20033;-64
2022/10/15 08:17:31;;;;;;;22.38;15.70;;;;;;;12.95;100.00;100400.84;5262703;28;20036;-64
2022/10/15 08:20:02;;;;;;;22.92;14.63;;;;;;;12.99;100.00;100407.59;5279709;28;20079;-64
2022/10/15 08:22:34;;;;;;;21.63;13.85;;;;;;;13.08;100.00;100400.56;5285609;28;20102;-64
2022/10/15 08:25:06;;;;;;;20.23;13.07;;;;;;;13.23;100.00;100407.13;5282728;28;20353;-64
2022/10/15 08:27:37;;;;;;;23.83;15.82;;;;;;;13.31;100.00;100406.44;5280943;28;20031;-64
2022/10/15 08:30:09;;;;;;;34.35;22.08;;;;;;;13.29;100.00;100411.91;5286826;28;20020;-64
2022/10/15 08:32:40;;;;;;;30.23;20.38;;;;;;;13.32;100.00;100402.75;5277345;28;20064;-64
2022/10/15 08:35:11;;;;;;;20.40;13.68;;;;;;;13.35;100.00;100402.47;5288547;28;20035;-64
2022/10/15 08:37:42;;;;;;;17.33;11.00;;;;;;;13.38;100.00;100401.31;5270104;28;20173;-64
2022/10/15 08:40:15;;;;;;;17.63;11.27;;;;;;;13.49;100.00;100393.94;5283628;28;20030;-64
2022/10/15 08:42:47;;;;;;;16.55;10.85;;;;;;;13.54;100.00;100388.16;5274713;28;20434;-64
2022/10/15 08:45:27;;;;;;;15.95;10.38;;;;;;;13.58;100.00;100375.31;5277744;28;20032;-64
2022/10/15 08:48:06;;;;;;;14.80;10.27;;;;;;;13.65;100.00;100384.41;5277258;28;20104;-64
2022/10/15 08:50:57;;;;;;;14.07;9.80;;;;;;;13.65;100.00;100384.41;5280779;28;20040;-64
2022/10/15 08:53:33;;;;;;;13.98;8.80;;;;;;;13.71;100.00;100381.13;5280712;28;20100;-65
2022/10/15 08:56:13;;;;;;;10.32;6.60;;;;;;;13.74;100.00;100380.84;5288085;28;20483;-65
2022/10/15 08:58:54;;;;;;;9.90;6.72;;;;;;;13.73;100.00;100379.19;5282559;28;20039;-64
2022/10/15 09:01:35;;;;;;;10.93;6.50;;;;;;;13.78;100.00;100374.19;5272833;28;20019;-64
2022/10/15 09:04:21;;;;;;;10.00;6.78;;;;;;;13.86;100.00;100360.88;5288410;28;20024;-64
2022/10/15 09:07:17;;;;;;;8.57;6.38;;;;;;;13.86;100.00;100351.97;5284812;28;20133;-65
2022/10/15 09:09:57;;;;;;;10.15;7.05;;;;;;;13.99;100.00;100357.81;5282022;28;20058;-64
2022/10/15 09:12:51;;;;;;;11.13;6.95;;;;;;;13.96;100.00;100350.09;5279536;28;20473;-64
2022/10/15 09:15:25;;;;;;;10.38;7.45;;;;;;;14.03;100.00;100359.22;5276354;28;20056;-65
2022/10/15 09:17:57;;;;;;;10.98;6.78;;;;;;;14.06;100.00;100360.75;5283749;28;20082;-64
2022/10/15 09:20:37;;;;;;;9.70;6.45;;;;;;;14.04;100.00;100352.84;5287838;28;20430;-64
2022/10/15 09:23:24;;;;;;;10.35;6.32;;;;;;;14.05;100.00;100348.34;5276941;28;20035;-65
2022/10/15 09:26:04;;;;;;;9.07;5.75;;;;;;;14.02;100.00;100354.84;5284694;28;20040;-64
2022/10/15 09:28:49;;;;;;;9.52;5.57;;;;;;;14.12;100.00;100357.47;5274856;28;20031;-64
2022/10/15 09:31:24;;;;;;;10.27;6.18;;;;;;;14.17;100.00;100363.22;5282127;28;20036;-65
2022/10/15 09:34:09;;;;;;;7.72;5.32;;;;;;;14.12;100.00;100358.31;5283972;28;20032;-64
2022/10/15 09:36:55;;;;;;;9.00;5.50;;;;;;;14.14;100.00;100355.47;5269468;28;20509;-64
2022/10/15 09:39:49;;;;;;;7.97;5.30;;;;;;;14.16;100.00;100348.13;5272661;28;20020;-66
2022/10/15 09:42:29;;;;;;;8.77;5.00;;;;;;;14.23;100.00;100351.00;5272468;28;20040;-64
2022/10/15 09:45:22;;;;;;;7.60;4.70;;;;;;;14.25;100.00;100346.38;5263471;28;20047;-64
2022/10/15 09:47:59;;;;;;;7.80;4.70;;;;;;;14.20;100.00;100346.81;5277605;28;20055;-65
2022/10/15 09:50:44;;;;;;;7.88;4.60;;;;;;;14.21;100.00;100337.78;5278891;28;20442;-65
2022/10/15 09:53:23;;;;;;;7.80;5.03;;;;;;;14.22;100.00;100331.41;5270452;28;20519;-64
2022/10/15 09:56:16;;;;;;;8.63;5.80;;;;;;;14.23;100.00;100333.09;5275647;28;20044;-66
2022/10/15 09:58:53;;;;;;;11.68;7.70;;;;;;;14.24;100.00;100334.75;5276499;28;20455;-65
2022/10/15 10:01:28;;;;;;;19.38;12.32;;;;;;;14.29;100.00;100326.28;5278971;28;20504;-66
2022/10/15 10:04:17;;;;;;;12.35;8.55;;;;;;;14.30;100.00;100323.44;5279855;28;21217;-65
2022/10/15 10:06:54;;;;;;;13.88;9.43;;;;;;;14.27;100.00;100317.53;5275893;28;20694;-65
2022/10/15 10:09:31;;;;;;;13.43;8.20;;;;;;;14.34;100.00;100326.63;5281411;28;20077;-65
2022/10/15 10:12:06;;;;;;;15.68;9.63;;;;;;;14.37;100.00;100325.50;5284221;28;20483;-66
2022/10/15 10:14:52;;;;;;;18.05;11.95;;;;;;;14.42;100.00;100325.84;5287263;28;20034;-66
2022/10/15 10:17:29;;;;;;;5.90;4.53;;;;;;;14.45;100.00;100318.34;5280056;28;20116;-65
2022/10/15 10:20:17;;;;;;;5.03;3.65;;;;;;;14.48;100.00;100323.41;5283010;28;20399;-65
2022/10/15 10:22:54;;;;;;;5.47;3.60;;;;;;;14.52;100.00;100314.03;5275110;28;20091;-65
2022/10/15 10:25:25;;;;;;;5.38;3.78;;;;;;;14.57;100.00;100321.63;5291309;28;20106;-65
2022/10/15 10:28:13;;;;;;;4.30;3.30;;;;;;;14.60;100.00;100320.50;5284041;28;20552;-65
2022/10/15 10:30:55;;;;;;;5.68;3.25;;;;;;;14.61;100.00;100323.03;5292755;28;20081;-65
2022/10/15 10:33:34;;;;;;;5.28;2.75;;;;;;;14.66;100.00;100322.56;5283642;28;20036;-66
2022/10/15 10:36:07;;;;;;;5.47;2.60;;;;;;;14.65;100.00;100324.41;5265344;28;20091;-65
2022/10/15 10:38:40;;;;;;;4.32;2.30;;;;;;;14.68;100.00;100323.25;5272671;28;20055;-65
2022/10/15 10:41:11;;;;;;;3.75;2.30;;;;;;;14.72;100.00;100326.47;5265553;28;20097;-66
2022/10/15 10:43:53;;;;;;;3.83;2.30;;;;;;;14.72;100.00;100329.16;5265043;28;20033;-65
2022/10/15 10:46:24;;;;;;;11.88;7.30;;;;;;;14.76;100.00;100325.16;5269308;28;20036;-66
2022/10/15 10:48:56;;;;;;;6.35;3.30;;;;;;;14.83;100.00;100332.41;5265160;28;20029;-65
2022/10/15 10:51:29;;;;;;;5.18;2.35;;;;;;;14.87;100.00;100333.78;5272228;28;20498;-65
2022/10/15 10:54:04;;;;;;;4.37;3.30;;;;;;;14.95;100.00;100330.31;5279952;28;20043;-65
2022/10/15 10:56:43;;;;;;;4.40;2.70;;;;;;;14.90;100.00;100336.16;5258978;28;20032;-65
2022/10/15 10:59:20;;;;;;;6.15;3.00;;;;;;;14.96;100.00;100331.13;5288743;28;20121;-65
2022/10/15 11:01:51;;;;;;;4.38;2.97;;;;;;;15.01;100.00;100320.75;5284816;28;20028;-65
2022/10/15 11:04:30;;;;;;;3.88;2.90;;;;;;;15.01;100.00;100321.59;5288652;28;20039;-65
2022/10/15 11:07:25;;;;;;;4.90;3.20;;;;;;;15.05;100.00;100325.69;5273914;28;20432;-65
2022/10/15 11:10:07;;;;;;;4.25;3.47;;;;;;;15.10;100.00;100317.97;5273113;28;20533;-65
2022/10/15 11:12:52;;;;;;;4.40;3.00;;;;;;;15.21;100.00;100318.72;5284367;28;20060;-65
2022/10/15 11:15:28;;;;;;;4.25;2.97;;;;;;;15.24;100.00;100308.44;5263328;28;20036;-65
2022/10/15 11:18:53;;;;;;;4.20;3.00;;;;;;;15.36;100.00;100317.09;5295242;28;20060;-65
2022/10/15 11:21:44;;;;;;;4.15;3.17;;;;;;;15.39;100.00;100321.28;5199081;28;20583;-65
2022/10/15 11:24:34;;;;;;;3.40;2.67;;;;;;;15.42;100.00;100311.06;5195546;28;20033;-65
2022/10/15 11:27:20;;;;;;;3.53;2.60;;;;;;;15.46;100.00;100312.41;5270198;28;20100;-65
2022/10/15 11:30:28;;;;;;;5.95;4.45;;;;;;;15.49;100.00;100306.72;5291300;28;20062;-65
2022/10/15 11:33:23;;;;;;;5.30;3.97;;;;;;;15.57;100.00;100313.13;5286036;28;20119;-65
2022/10/15 11:36:18;;;;;;;4.80;3.67;;;;;;;15.58;100.00;100312.13;5277885;28;20036;-65
2022/10/15 11:39:15;;;;;;;5.13;2.50;;;;;;;15.58;100.00;100304.88;5279942;28;20028;-65
2022/10/15 11:41:59;;;;;;;5.65;2.30;;;;;;;15.61;100.00;100309.97;5287840;28;20165;-65